Time;durP1;ratioP1;P1;durP2;ratioP2;P2;SDS_P1;SDS_P2;PMS_P1;PMS_P2;Temp;Humidity;BMP_temperature;BMP_pressure;BME280_temperature;BME280_humidity;BME280_pressure;Samples;Min_cycle;Max_cycle;Signal;HPM_P1;HPM_P2
2021/12/24 00:00:22;;;;;;;;;;;1.50;92.30;;;;;;5053033;28;20391;-75
2021/12/24 00:02:49;;;;;;;;;;;1.60;92.20;;;;;;5052849;28;19935;-75
2021/12/24 00:05:15;;;;;;;;;;;1.70;92.20;;;;;;5053335;28;19937;-75
2021/12/24 00:07:40;;;;;;;;;;;1.70;92.10;;;;;;5045500;28;20022;-75
2021/12/24 00:10:07;;;;;;;;;;;1.70;91.90;;;;;;5051547;28;20375;-74
2021/12/24 00:12:35;;;;;;;;;;;1.70;91.70;;;;;;5051479;28;19995;-75
2021/12/24 00:15:11;;;;;;;;;;;1.60;91.70;;;;;;5052909;28;19933;-75
2021/12/24 00:17:38;;;;;;;;;;;1.50;91.90;;;;;;5050856;28;19973;-74
2021/12/24 00:35:55;;;;;;;;;;;2.00;91.10;;;;;;5052514;28;19964;-75
2021/12/24 00:38:20;;;;;;;;;;;2.20;91.30;;;;;;5052310;28;19939;-74
2021/12/24 00:40:46;;;;;;;;;;;2.40;91.20;;;;;;5052419;28;19939;-74
2021/12/24 00:43:13;;;;;;;;;;;2.50;90.70;;;;;;5051613;28;19937;-74
2021/12/24 00:45:40;;;;;;;;;;;2.30;90.00;;;;;;5052172;28;19945;-75
2021/12/24 00:48:06;;;;;;;;;;;2.00;90.00;;;;;;5052027;28;19931;-74
2021/12/24 00:50:45;;;;;;;;;;;1.80;90.50;;;;;;5052073;28;20374;-75
2021/12/24 00:55:02;;;;;;;;;;;1.70;91.00;;;;;;5051794;28;20486;-75
2021/12/24 00:55:56;;;;;;;;;;;1.70;91.30;;;;;;5051395;28;19928;-75
2021/12/24 00:58:21;;;;;;;;;;;1.80;91.40;;;;;;5050596;28;20429;-75
2021/12/24 01:00:47;;;;;;;;;;;1.80;91.40;;;;;;5052025;28;19934;-75
2021/12/24 01:03:13;;;;;;;;;;;1.80;91.50;;;;;;5051741;28;20394;-74
2021/12/24 01:05:39;;;;;;;;;;;2.00;91.50;;;;;;5050077;28;19940;-75
2021/12/24 01:08:05;;;;;;;;;;;2.10;91.60;;;;;;5044831;28;19929;-75
2021/12/24 01:10:32;;;;;;;;;;;2.30;91.40;;;;;;5051678;28;19991;-75
2021/12/24 01:12:58;;;;;;;;;;;2.40;90.80;;;;;;5050557;28;19935;-75
2021/12/24 01:15:25;;;;;;;;;;;2.50;90.00;;;;;;5051546;28;20353;-75
2021/12/24 01:20:32;;;;;;;;;;;2.30;89.60;;;;;;5051436;28;20436;-75
2021/12/24 01:38:49;;;;;;;;;;;2.30;88.60;;;;;;5050998;28;20454;-75
2021/12/24 01:42:39;;;;;;;;;;;2.40;88.60;;;;;;5051488;28;19939;-75
2021/12/24 01:44:00;;;;;;;;;;;2.50;88.60;;;;;;5050558;28;19977;-75
2021/12/24 01:46:26;;;;;;;;;;;2.50;88.10;;;;;;5050905;28;20005;-75
2021/12/24 01:48:51;;;;;;;;;;;2.40;87.90;;;;;;5050897;28;19978;-75
2021/12/24 01:51:17;;;;;;;;;;;2.30;87.90;;;;;;5049856;28;20350;-75
2021/12/24 01:53:43;;;;;;;;;;;2.10;87.90;;;;;;5049733;28;20372;-75
2021/12/24 01:56:09;;;;;;;;;;;1.90;87.80;;;;;;5050282;28;19929;-75
2021/12/24 01:58:34;;;;;;;;;;;2.00;88.20;;;;;;5050926;28;19933;-75
2021/12/24 02:01:00;;;;;;;;;;;2.10;88.60;;;;;;5049454;28;19935;-75
2021/12/24 02:03:25;;;;;;;;;;;1.90;88.10;;;;;;5050824;28;19941;-74
2021/12/24 02:05:51;;;;;;;;;;;1.60;88.50;;;;;;5050048;28;20230;-75
2021/12/24 02:08:16;;;;;;;;;;;1.40;89.00;;;;;;5042370;28;20286;-75
2021/12/24 02:10:43;;;;;;;;;;;1.30;89.50;;;;;;5050237;28;19938;-75
2021/12/24 02:13:09;;;;;;;;;;;1.20;90.00;;;;;;5048900;28;19934;-75
2021/12/24 02:28:47;;;;;;;;;;;1.50;90.00;;;;;;5051004;28;19965;-75
2021/12/24 02:31:14;;;;;;;;;;;1.60;90.00;;;;;;5049934;28;19950;-75
2021/12/24 02:33:40;;;;;;;;;;;1.70;89.80;;;;;;5049561;28;20025;-74
2021/12/24 02:36:07;;;;;;;;;;;1.50;89.40;;;;;;5050064;28;20029;-75
2021/12/24 02:38:33;;;;;;;;;;;1.40;89.30;;;;;;5050053;28;19982;-75
2021/12/24 02:40:59;;;;;;;;;;;1.20;89.60;;;;;;5048468;28;19935;-74
2021/12/24 02:43:25;;;;;;;;;;;1.00;90.00;;;;;;5050130;28;20316;-74
2021/12/24 02:45:54;;;;;;;;;;;0.70;90.40;;;;;;5049381;28;19979;-75
2021/12/24 02:56:18;;;;;;;;;;;0.50;92.10;;;;;;5050209;28;19935;-75
2021/12/24 02:58:45;;;;;;;;;;;0.50;92.30;;;;;;5048207;28;19929;-74
2021/12/24 03:01:12;;;;;;;;;;;0.50;92.60;;;;;;5048499;28;19939;-74
2021/12/24 03:03:38;;;;;;;;;;;0.50;92.60;;;;;;5049548;28;19931;-74
2021/12/24 03:06:04;;;;;;;;;;;0.50;92.80;;;;;;5049532;28;19951;-75
2021/12/24 03:08:29;;;;;;;;;;;0.40;93.00;;;;;;5041718;28;20450;-75
2021/12/24 03:10:57;;;;;;;;;;;0.40;92.90;;;;;;5049396;28;19935;-75
2021/12/24 03:13:23;;;;;;;;;;;0.40;92.80;;;;;;5049755;28;19935;-75
2021/12/24 03:15:51;;;;;;;;;;;0.30;92.80;;;;;;5049692;28;19942;-75
2021/12/24 03:18:23;;;;;;;;;;;0.30;93.00;;;;;;5049782;28;19936;-75
2021/12/24 03:20:49;;;;;;;;;;;0.30;93.10;;;;;;5049756;28;19937;-74
2021/12/24 03:23:35;;;;;;;;;;;0.20;93.10;;;;;;5049321;28;19940;-74
2021/12/24 03:26:01;;;;;;;;;;;0.20;92.90;;;;;;5049064;28;19945;-75
2021/12/24 03:28:27;;;;;;;;;;;0.10;93.00;;;;;;5049256;28;20023;-75
2021/12/24 03:30:52;;;;;;;;;;;0.20;93.20;;;;;;5049644;28;19938;-75
2021/12/24 03:33:18;;;;;;;;;;;0.40;93.30;;;;;;5049368;28;19966;-75
2021/12/24 03:35:43;;;;;;;;;;;0.50;93.30;;;;;;5049354;28;19939;-75
2021/12/24 03:38:09;;;;;;;;;;;0.50;93.20;;;;;;5048402;28;20423;-74
2021/12/24 03:40:34;;;;;;;;;;;0.70;93.20;;;;;;5049245;28;19940;-74
2021/12/24 03:43:00;;;;;;;;;;;0.80;93.20;;;;;;5049515;28;20008;-74
2021/12/24 03:45:36;;;;;;;;;;;0.90;93.10;;;;;;5049181;28;20367;-74
2021/12/24 03:48:13;;;;;;;;;;;1.10;92.90;;;;;;5048261;28;19986;-75
2021/12/24 03:51:00;;;;;;;;;;;1.10;92.60;;;;;;5049372;28;19952;-74
2021/12/24 03:56:12;;;;;;;;;;;1.20;92.00;;;;;;5041543;28;20190;-75
2021/12/24 03:58:37;;;;;;;;;;;1.30;91.50;;;;;;5052300;28;19935;-75
2021/12/24 04:01:03;;;;;;;;;;;1.10;90.80;;;;;;5052783;28;19946;-75
2021/12/24 04:03:29;;;;;;;;;;;1.00;90.60;;;;;;5051890;28;20035;-75
2021/12/24 04:05:54;;;;;;;;;;;0.90;90.30;;;;;;5051345;28;19947;-75
2021/12/24 04:08:20;;;;;;;;;;;1.00;90.00;;;;;;5045412;28;19927;-75
2021/12/24 04:10:46;;;;;;;;;;;0.60;89.10;;;;;;5052403;28;19987;-74
2021/12/24 04:13:13;;;;;;;;;;;0.30;89.30;;;;;;5051431;28;19936;-74
2021/12/24 04:15:38;;;;;;;;;;;0.10;90.30;;;;;;5052877;28;20407;-75
2021/12/24 04:18:13;;;;;;;;;;;0.30;90.90;;;;;;5051466;28;20002;-75
2021/12/24 04:26:07;;;;;;;;;;;0.70;91.00;;;;;;5052340;28;19948;-74
2021/12/24 04:28:32;;;;;;;;;;;0.60;90.70;;;;;;5051078;28;19943;-74
2021/12/24 04:30:59;;;;;;;;;;;0.40;90.70;;;;;;5052779;28;19943;-74
2021/12/24 04:33:31;;;;;;;;;;;0.20;90.60;;;;;;5052287;28;19980;-74
2021/12/24 04:36:14;;;;;;;;;;;0.10;91.50;;;;;;5050797;28;19936;-74
2021/12/24 04:39:06;;;;;;;;;;;0.10;92.30;;;;;;5052417;28;19944;-74
2021/12/24 05:03:12;;;;;;;;;;;0.30;93.40;;;;;;5052154;28;19947;-75
2021/12/24 05:05:47;;;;;;;;;;;0.50;93.50;;;;;;5051991;28;19945;-75
2021/12/24 05:10:39;;;;;;;;;;;0.80;93.20;;;;;;5052129;28;20030;-75
2021/12/24 05:13:05;;;;;;;;;;;0.90;92.90;;;;;;5051923;28;19934;-75
2021/12/24 05:15:31;;;;;;;;;;;1.00;92.60;;;;;;5050483;28;20311;-75
2021/12/24 05:23:06;;;;;;;;;;;1.20;91.80;;;;;;5051817;28;20026;-75
2021/12/24 05:25:34;;;;;;;;;;;1.30;91.30;;;;;;5050305;28;20028;-75
2021/12/24 05:28:00;;;;;;;;;;;1.30;90.40;;;;;;5051481;28;19934;-75
2021/12/24 05:30:25;;;;;;;;;;;1.30;90.00;;;;;;5051219;28;19944;-75
2021/12/24 05:32:51;;;;;;;;;;;1.40;90.20;;;;;;5050224;28;19965;-74
2021/12/24 05:35:16;;;;;;;;;;;1.50;89.80;;;;;;5051834;28;19934;-75
2021/12/24 05:37:42;;;;;;;;;;;1.50;89.40;;;;;;5051368;28;20328;-75
2021/12/24 05:40:08;;;;;;;;;;;1.50;89.10;;;;;;5051225;28;19932;-75
2021/12/24 05:42:33;;;;;;;;;;;1.50;88.90;;;;;;5051536;28;19938;-75
2021/12/24 05:45:05;;;;;;;;;;;1.50;88.60;;;;;;5051111;28;20634;-75
2021/12/24 05:47:31;;;;;;;;;;;1.30;88.60;;;;;;5049761;28;19932;-75
2021/12/24 05:49:56;;;;;;;;;;;1.10;88.80;;;;;;5050922;28;19943;-75
2021/12/24 05:52:22;;;;;;;;;;;0.90;89.10;;;;;;5051089;28;19933;-75
2021/12/24 05:54:48;;;;;;;;;;;0.70;89.80;;;;;;5051291;28;19934;-75
2021/12/24 05:57:13;;;;;;;;;;;0.60;90.40;;;;;;5049376;28;19942;-75
2021/12/24 05:59:39;;;;;;;;;;;0.60;90.60;;;;;;5050962;28;20108;-75
2021/12/24 06:02:04;;;;;;;;;;;0.60;90.90;;;;;;5050691;28;19935;-75
2021/12/24 06:04:30;;;;;;;;;;;0.80;91.00;;;;;;5049584;28;20438;-75
2021/12/24 06:06:56;;;;;;;;;;;1.10;90.90;;;;;;5045362;28;19969;-75
2021/12/24 06:09:21;;;;;;;;;;;1.20;90.50;;;;;;5047523;28;19995;-75
2021/12/24 06:11:47;;;;;;;;;;;1.40;90.00;;;;;;5050274;28;19963;-75
2021/12/24 06:14:13;;;;;;;;;;;1.40;89.50;;;;;;5048368;28;19943;-75
2021/12/24 06:16:47;;;;;;;;;;;1.50;88.70;;;;;;5050213;28;19988;-75
2021/12/24 06:19:14;;;;;;;;;;;1.60;87.90;;;;;;5033090;28;20008;-75
2021/12/24 06:21:39;;;;;;;;;;;1.40;87.60;;;;;;5040068;28;20180;-75
2021/12/24 06:24:05;;;;;;;;;;;1.20;87.90;;;;;;5050336;28;19938;-75
2021/12/24 06:26:30;;;;;;;;;;;0.90;88.50;;;;;;5049943;28;19942;-75
2021/12/24 06:28:56;;;;;;;;;;;1.00;88.90;;;;;;5050220;28;19990;-75
2021/12/24 06:31:21;;;;;;;;;;;1.00;88.90;;;;;;5049161;28;20389;-75
2021/12/24 06:33:47;;;;;;;;;;;0.90;88.70;;;;;;5049015;28;20344;-75
2021/12/24 06:36:12;;;;;;;;;;;0.80;88.90;;;;;;5050245;28;20414;-75
2021/12/24 06:38:38;;;;;;;;;;;0.70;89.20;;;;;;5048948;28;20446;-75
2021/12/24 06:41:03;;;;;;;;;;;0.90;89.40;;;;;;5051507;28;19950;-74
2021/12/24 06:43:29;;;;;;;;;;;1.10;89.30;;;;;;5050329;28;20423;-75
2021/12/24 06:45:56;;;;;;;;;;;1.20;89.10;;;;;;5045198;22;19978;-75
2021/12/24 06:48:22;;;;;;;;;;;1.20;88.70;;;;;;5023470;28;19945;-75
2021/12/24 06:50:48;;;;;;;;;;;1.00;88.30;;;;;;5010531;28;19940;-75
2021/12/24 06:53:14;;;;;;;;;;;0.70;88.20;;;;;;5029765;28;19935;-75
2021/12/24 06:55:39;;;;;;;;;;;0.50;88.70;;;;;;5024730;28;19948;-74
2021/12/24 06:58:05;;;;;;;;;;;0.30;89.20;;;;;;5010126;28;20433;-74
2021/12/24 07:00:31;;;;;;;;;;;0.20;90.00;;;;;;5010472;28;20421;-75
2021/12/24 07:02:57;;;;;;;;;;;0.30;90.30;;;;;;5010017;28;19932;-75
2021/12/24 07:05:23;;;;;;;;;;;0.30;90.60;;;;;;5010013;28;20042;-75
2021/12/24 07:07:48;;;;;;;;;;;0.30;90.80;;;;;;5003904;28;20143;-75
2021/12/24 07:10:14;;;;;;;;;;;0.40;90.90;;;;;;5009998;28;20014;-75
2021/12/24 07:12:39;;;;;;;;;;;0.50;91.00;;;;;;5008624;28;19946;-75
2021/12/24 07:15:05;;;;;;;;;;;0.50;91.00;;;;;;5009989;28;19927;-75
2021/12/24 07:17:31;;;;;;;;;;;0.50;90.80;;;;;;5009524;28;20428;-75
2021/12/24 07:19:56;;;;;;;;;;;0.50;90.90;;;;;;5040859;28;19928;-75
2021/12/24 07:22:22;;;;;;;;;;;0.60;91.00;;;;;;5009438;28;19933;-75
2021/12/24 07:24:47;;;;;;;;;;;0.60;90.70;;;;;;5010272;28;20399;-75
2021/12/24 07:27:13;;;;;;;;;;;0.70;90.90;;;;;;5020487;28;19963;-75
2021/12/24 07:29:38;;;;;;;;;;;1.00;90.90;;;;;;5031673;28;19934;-75
2021/12/24 07:32:05;;;;;;;;;;;1.10;90.30;;;;;;5032074;28;20406;-75
2021/12/24 07:34:30;;;;;;;;;;;1.30;90.10;;;;;;5033506;28;19945;-75
2021/12/24 07:36:56;;;;;;;;;;;1.50;89.70;;;;;;5031548;28;19927;-75
2021/12/24 07:39:22;;;;;;;;;;;1.70;89.30;;;;;;5019199;28;19970;-75
2021/12/24 07:41:48;;;;;;;;;;;1.80;88.70;;;;;;5032131;28;19985;-75
2021/12/24 07:44:16;;;;;;;;;;;2.00;87.70;;;;;;5031253;28;19951;-75
2021/12/24 07:46:47;;;;;;;;;;;2.10;86.90;;;;;;5032576;28;19963;-75
2021/12/24 07:54:32;;;;;;;;;;;2.00;86.90;;;;;;5025059;28;20134;-77
2021/12/24 07:56:59;;;;;;;;;;;2.10;86.20;;;;;;5022577;28;20031;-83
2021/12/24 07:59:26;;;;;;;;;;;2.00;86.10;;;;;;5024843;28;19948;-84
2021/12/24 08:01:52;;;;;;;;;;;2.10;86.00;;;;;;5030938;28;20390;-76
2021/12/24 08:04:18;;;;;;;;;;;2.00;86.50;;;;;;5032772;28;19993;-76
2021/12/24 08:06:43;;;;;;;;;;;1.90;87.20;;;;;;5029897;28;19983;-76
2021/12/24 08:09:09;;;;;;;;;;;1.90;87.30;;;;;;5029060;28;19936;-76
2021/12/24 08:11:35;;;;;;;;;;;2.00;87.40;;;;;;5023162;28;19944;-76
2021/12/24 08:14:05;;;;;;;;;;;2.00;87.10;;;;;;5027681;28;20068;-76
2021/12/24 08:16:31;;;;;;;;;;;2.20;87.00;;;;;;5012963;28;19936;-76
2021/12/24 08:18:57;;;;;;;;;;;2.10;86.90;;;;;;5013687;28;19941;-76
2021/12/24 08:21:22;;;;;;;;;;;2.00;86.40;;;;;;5031961;28;20032;-76
2021/12/24 08:23:48;;;;;;;;;;;2.10;86.50;;;;;;5032349;28;20019;-76
2021/12/24 08:26:14;;;;;;;;;;;2.00;86.40;;;;;;5031281;28;19942;-76
2021/12/24 08:28:40;;;;;;;;;;;2.10;86.50;;;;;;5031242;28;19945;-76
2021/12/24 08:31:06;;;;;;;;;;;2.30;86.00;;;;;;5030836;28;19949;-76
2021/12/24 08:33:35;;;;;;;;;;;2.50;85.70;;;;;;5032127;28;20420;-76
2021/12/24 08:36:02;;;;;;;;;;;2.60;85.20;;;;;;5030842;28;19982;-76
2021/12/24 08:38:28;;;;;;;;;;;2.70;85.00;;;;;;5031349;28;19940;-76
2021/12/24 08:40:53;;;;;;;;;;;2.90;84.70;;;;;;5032102;28;20404;-76
2021/12/24 08:43:19;;;;;;;;;;;3.00;83.90;;;;;;5032240;28;19960;-76
2021/12/24 08:45:44;;;;;;;;;;;3.10;83.10;;;;;;5030769;28;19950;-76
2021/12/24 08:48:10;;;;;;;;;;;3.00;83.00;;;;;;5030376;28;19971;-76
2021/12/24 08:50:35;;;;;;;;;;;3.10;83.20;;;;;;5030650;28;20439;-76
2021/12/24 08:53:01;;;;;;;;;;;3.20;83.30;;;;;;5031212;28;19946;-76
2021/12/24 08:55:27;;;;;;;;;;;3.00;83.50;;;;;;5031811;28;19938;-76
2021/12/24 08:57:52;;;;;;;;;;;2.90;83.90;;;;;;5030636;28;19982;-76
2021/12/24 09:00:20;;;;;;;;;;;3.00;84.10;;;;;;5031503;28;20387;-76
2021/12/24 09:02:46;;;;;;;;;;;3.10;83.70;;;;;;5029871;28;19937;-76
2021/12/24 09:05:13;;;;;;;;;;;3.10;84.30;;;;;;5031698;28;20376;-76
2021/12/24 09:07:40;;;;;;;;;;;3.00;84.70;;;;;;5010067;28;19948;-76
2021/12/24 09:10:06;;;;;;;;;;;3.00;84.90;;;;;;5022346;28;19951;-76
2021/12/24 09:12:32;;;;;;;;;;;3.20;84.30;;;;;;5022483;28;19956;-76
2021/12/24 09:14:57;;;;;;;;;;;3.40;83.70;;;;;;5013618;28;20318;-76
2021/12/24 09:17:23;;;;;;;;;;;3.50;83.00;;;;;;5026761;28;20044;-76
2021/12/24 09:19:51;;;;;;;;;;;3.70;81.90;;;;;;5017664;28;20000;-76
2021/12/24 09:22:18;;;;;;;;;;;3.80;81.70;;;;;;5031160;28;19933;-76
2021/12/24 09:24:50;;;;;;;;;;;3.90;81.40;;;;;;5034355;28;19951;-76
2021/12/24 09:27:16;;;;;;;;;;;3.90;81.40;;;;;;5037874;28;20043;-76
2021/12/24 09:29:42;;;;;;;;;;;3.90;80.90;;;;;;5031434;28;19956;-76
2021/12/24 09:32:08;;;;;;;;;;;4.00;80.90;;;;;;5030385;28;20024;-76
2021/12/24 09:34:33;;;;;;;;;;;4.10;80.30;;;;;;5031077;28;19944;-76
2021/12/24 09:36:59;;;;;;;;;;;4.30;80.00;;;;;;5027652;28;20361;-76
2021/12/24 09:39:24;;;;;;;;;;;4.40;79.50;;;;;;5030775;28;19934;-73
2021/12/24 09:41:50;;;;;;;;;;;4.40;78.40;;;;;;5022445;28;20459;-75
2021/12/24 09:44:16;;;;;;;;;;;4.50;78.60;;;;;;5010553;28;19950;-75
2021/12/24 09:46:43;;;;;;;;;;;4.60;78.10;;;;;;5021085;28;20447;-75
2021/12/24 09:49:09;;;;;;;;;;;4.80;77.50;;;;;;5051545;28;19946;-75
2021/12/24 09:51:36;;;;;;;;;;;4.90;77.50;;;;;;5048927;28;20093;-75
2021/12/24 09:54:02;;;;;;;;;;;5.00;77.00;;;;;;5049987;28;19936;-75
2021/12/24 09:56:28;;;;;;;;;;;5.10;76.30;;;;;;5050926;28;19927;-74
2021/12/24 09:58:54;;;;;;;;;;;5.10;75.80;;;;;;5050677;28;19949;-75
2021/12/24 10:01:33;;;;;;;;;;;5.20;75.40;;;;;;5044606;28;19943;-75
2021/12/24 10:04:03;;;;;;;;;;;5.20;75.30;;;;;;5019143;28;19934;-75
2021/12/24 10:06:29;;;;;;;;;;;5.30;75.50;;;;;;5009498;28;19944;-75
2021/12/24 10:09:08;;;;;;;;;;;5.40;75.10;;;;;;5006896;28;19938;-75
2021/12/24 10:11:45;;;;;;;;;;;5.40;75.20;;;;;;5010036;28;19942;-75
2021/12/24 10:14:11;;;;;;;;;;;5.30;75.90;;;;;;5027046;28;19945;-75
2021/12/24 10:16:40;;;;;;;;;;;5.40;76.10;;;;;;5030894;28;20025;-75
2021/12/24 10:19:08;;;;;;;;;;;5.50;75.90;;;;;;5030654;28;20395;-75
2021/12/24 10:21:34;;;;;;;;;;;5.20;76.20;;;;;;5030596;28;19997;-75
2021/12/24 10:24:01;;;;;;;;;;;5.20;77.20;;;;;;5030875;28;19972;-75
2021/12/24 10:26:29;;;;;;;;;;;5.30;76.90;;;;;;5025194;28;19947;-75
2021/12/24 10:28:57;;;;;;;;;;;5.40;76.50;;;;;;5014590;28;20381;-74
2021/12/24 10:31:24;;;;;;;;;;;5.10;77.50;;;;;;5009650;28;19943;-75
2021/12/24 10:34:02;;;;;;;;;;;5.30;77.90;;;;;;5024292;28;19934;-75
2021/12/24 10:36:28;;;;;;;;;;;5.40;77.50;;;;;;5024327;28;20002;-75
2021/12/24 10:38:54;;;;;;;;;;;5.60;77.30;;;;;;5026405;28;19950;-75
2021/12/24 10:41:20;;;;;;;;;;;5.60;76.90;;;;;;5028788;28;20388;-75
2021/12/24 10:43:45;;;;;;;;;;;5.60;77.20;;;;;;5028104;28;20329;-75
2021/12/24 10:46:12;;;;;;;;;;;5.60;76.30;;;;;;5010760;28;19957;-75
2021/12/24 10:48:38;;;;;;;;;;;5.60;76.50;;;;;;5042649;28;19949;-75
2021/12/24 10:51:07;;;;;;;;;;;5.40;76.40;;;;;;5009881;28;20167;-75
2021/12/24 10:53:51;;;;;;;;;;;5.50;76.90;;;;;;5011325;28;19938;-75
2021/12/24 10:56:23;;;;;;;;;;;5.70;76.80;;;;;;5035527;28;19997;-75
2021/12/24 10:58:49;;;;;;;;;;;6.00;75.90;;;;;;5049225;28;19993;-75
2021/12/24 11:01:15;;;;;;;;;;;6.20;74.90;;;;;;5030089;28;19931;-75
2021/12/24 11:03:43;;;;;;;;;;;6.40;73.40;;;;;;5012803;28;19967;-74
2021/12/24 11:06:09;;;;;;;;;;;6.60;71.50;;;;;;5014395;28;20409;-75
2021/12/24 11:08:36;;;;;;;;;;;6.70;71.00;;;;;;5009143;28;19978;-75
2021/12/24 11:11:02;;;;;;;;;;;6.90;70.60;;;;;;5013929;28;20390;-75
2021/12/24 11:13:39;;;;;;;;;;;7.00;70.00;;;;;;5014958;28;19944;-75
2021/12/24 11:16:06;;;;;;;;;;;7.10;70.00;;;;;;5042200;28;19944;-75
2021/12/24 11:18:39;;;;;;;;;;;7.10;70.20;;;;;;5053389;28;19938;-74
2021/12/24 11:21:10;;;;;;;;;;;7.10;69.90;;;;;;5042273;28;20002;-74
2021/12/24 11:23:37;;;;;;;;;;;7.10;70.00;;;;;;5033863;28;19960;-75
2021/12/24 11:26:04;;;;;;;;;;;7.00;70.60;;;;;;5032868;28;19942;-74
2021/12/24 11:28:30;;;;;;;;;;;7.10;70.10;;;;;;5028715;28;20413;-74
2021/12/24 11:30:57;;;;;;;;;;;7.10;70.30;;;;;;5032635;28;19936;-75
2021/12/24 11:33:24;;;;;;;;;;;7.10;70.70;;;;;;5032409;28;20418;-74
2021/12/24 11:35:50;;;;;;;;;;;7.20;71.10;;;;;;5033721;28;20047;-75
2021/12/24 11:38:20;;;;;;;;;;;7.20;70.90;;;;;;5032703;28;20243;-75
2021/12/24 11:40:47;;;;;;;;;;;7.30;70.10;;;;;;5032721;28;19939;-75
2021/12/24 11:43:13;;;;;;;;;;;7.10;71.20;;;;;;5033751;28;19995;-74
2021/12/24 11:45:38;;;;;;;;;;;7.00;70.70;;;;;;5033528;28;19943;-74
2021/12/24 11:48:05;;;;;;;;;;;6.90;71.50;;;;;;5016048;28;20099;-74
2021/12/24 11:50:31;;;;;;;;;;;6.90;72.40;;;;;;5033035;28;20025;-74
2021/12/24 11:53:03;;;;;;;;;;;6.90;72.50;;;;;;5033507;28;20034;-74
2021/12/24 11:55:32;;;;;;;;;;;6.70;72.70;;;;;;5033688;28;19935;-74
2021/12/24 11:57:59;;;;;;;;;;;6.40;73.60;;;;;;5033846;28;20073;-74
2021/12/24 12:00:36;;;;;;;;;;;6.40;74.30;;;;;;5033708;28;19950;-74
2021/12/24 12:03:01;;;;;;;;;;;6.50;74.10;;;;;;5032397;28;19944;-74
2021/12/24 12:05:28;;;;;;;;;;;6.50;73.60;;;;;;5033100;28;19935;-74
2021/12/24 12:08:13;;;;;;;;;;;6.60;73.40;;;;;;5027431;28;19941;-74
2021/12/24 12:10:49;;;;;;;;;;;6.70;73.20;;;;;;5032268;28;19942;-75
2021/12/24 12:13:34;;;;;;;;;;;6.60;72.50;;;;;;5031537;28;20400;-74
2021/12/24 12:15:59;;;;;;;;;;;6.50;73.20;;;;;;5033575;28;20388;-74
2021/12/24 12:18:33;;;;;;;;;;;6.40;73.60;;;;;;5032828;28;19943;-74
2021/12/24 12:21:09;;;;;;;;;;;6.20;74.00;;;;;;5033510;28;19969;-74
2021/12/24 12:23:48;;;;;;;;;;;6.00;74.60;;;;;;5033193;28;19942;-74
2021/12/24 12:26:32;;;;;;;;;;;6.00;75.40;;;;;;5033021;28;19986;-74
2021/12/24 12:29:15;;;;;;;;;;;6.00;76.10;;;;;;5032904;28;19934;-74
2021/12/24 12:31:41;;;;;;;;;;;6.00;76.50;;;;;;5032989;28;19946;-74
2021/12/24 12:34:25;;;;;;;;;;;6.00;76.40;;;;;;5033293;28;20344;-74
2021/12/24 12:36:51;;;;;;;;;;;6.00;76.10;;;;;;5031950;28;19929;-74
2021/12/24 12:39:26;;;;;;;;;;;6.00;76.20;;;;;;5033320;28;19995;-74
2021/12/24 12:41:52;;;;;;;;;;;6.00;76.00;;;;;;5032631;28;19937;-74
2021/12/24 12:44:19;;;;;;;;;;;6.00;76.80;;;;;;5033189;28;19987;-74
2021/12/24 12:46:47;;;;;;;;;;;6.00;76.90;;;;;;5032432;28;20010;-74
2021/12/24 12:49:17;;;;;;;;;;;6.00;77.30;;;;;;5031528;28;19990;-74
2021/12/24 12:51:48;;;;;;;;;;;6.00;76.80;;;;;;5032811;28;19988;-74
2021/12/24 12:54:32;;;;;;;;;;;6.00;76.90;;;;;;5032101;28;20019;-74
2021/12/24 12:57:14;;;;;;;;;;;6.00;77.20;;;;;;5031344;28;20021;-74
2021/12/24 12:59:40;;;;;;;;;;;6.00;77.00;;;;;;5032564;28;19940;-74
2021/12/24 13:02:06;;;;;;;;;;;6.10;76.50;;;;;;5032861;28;19961;-74
2021/12/24 13:04:31;;;;;;;;;;;6.10;75.70;;;;;;5031265;28;19938;-74
2021/12/24 13:06:57;;;;;;;;;;;6.10;75.50;;;;;;5028512;28;20461;-74
2021/12/24 13:09:32;;;;;;;;;;;6.10;75.90;;;;;;5029934;28;19932;-74
2021/12/24 13:11:58;;;;;;;;;;;6.10;76.30;;;;;;5032431;28;19934;-74
2021/12/24 13:14:26;;;;;;;;;;;6.10;76.50;;;;;;5032735;28;20024;-74
2021/12/24 13:17:05;;;;;;;;;;;6.20;76.00;;;;;;5032249;28;19996;-74
2021/12/24 13:19:57;;;;;;;;;;;6.20;75.70;;;;;;5030585;28;19935;-74
2021/12/24 13:22:32;;;;;;;;;;;6.20;75.50;;;;;;5032269;28;19991;-74
2021/12/24 13:24:58;;;;;;;;;;;6.20;75.10;;;;;;5031649;28;20036;-74
2021/12/24 13:27:27;;;;;;;;;;;6.20;75.30;;;;;;5030043;28;19945;-74
2021/12/24 13:30:04;;;;;;;;;;;6.20;75.50;;;;;;5030750;28;19943;-74
2021/12/24 13:32:29;;;;;;;;;;;6.10;75.70;;;;;;5031945;28;19937;-74
2021/12/24 13:34:55;;;;;;;;;;;6.10;75.70;;;;;;5031762;28;20305;-74
2021/12/24 13:37:21;;;;;;;;;;;6.00;76.10;;;;;;5032064;28;19933;-74
2021/12/24 13:39:50;;;;;;;;;;;6.10;76.80;;;;;;5032350;28;20402;-74
2021/12/24 13:42:17;;;;;;;;;;;6.10;76.50;;;;;;5030720;28;19955;-74
2021/12/24 13:44:43;;;;;;;;;;;6.00;76.40;;;;;;5031129;28;20004;-74
2021/12/24 13:47:21;;;;;;;;;;;6.00;76.40;;;;;;5030607;28;20400;-74
2021/12/24 13:55:27;;;;;;;;;;;5.90;77.20;;;;;;5031095;28;20448;-74
2021/12/24 13:57:57;;;;;;;;;;;6.00;77.30;;;;;;5029987;28;19979;-74
2021/12/24 14:00:23;;;;;;;;;;;5.90;77.00;;;;;;5031698;28;19930;-74
2021/12/24 14:02:59;;;;;;;;;;;6.00;77.30;;;;;;5031680;28;19930;-74
2021/12/24 14:05:25;;;;;;;;;;;6.00;77.30;;;;;;5031489;28;19937;-74
2021/12/24 14:08:04;;;;;;;;;;;6.00;77.70;;;;;;5023502;28;19939;-74
2021/12/24 14:10:30;;;;;;;;;;;5.90;77.90;;;;;;5029719;28;20345;-74
2021/12/24 14:13:03;;;;;;;;;;;5.90;78.00;;;;;;5031334;28;19931;-74
2021/12/24 14:15:29;;;;;;;;;;;5.90;77.70;;;;;;5031322;28;19932;-74
2021/12/24 14:23:30;;;;;;;;;;;5.80;77.90;;;;;;5031306;28;19934;-74
2021/12/24 14:26:01;;;;;;;;;;;5.80;77.80;;;;;;5029974;28;19942;-74
2021/12/24 14:28:26;;;;;;;;;;;5.80;77.70;;;;;;5030919;28;20000;-74
2021/12/24 14:31:02;;;;;;;;;;;5.70;78.00;;;;;;5030997;28;20343;-74
2021/12/24 14:33:28;;;;;;;;;;;5.70;78.40;;;;;;5030619;28;19954;-74
2021/12/24 14:35:53;;;;;;;;;;;5.70;78.60;;;;;;5031046;28;20389;-74
2021/12/24 14:38:23;;;;;;;;;;;5.70;78.60;;;;;;5030461;28;19980;-74
2021/12/24 14:40:56;;;;;;;;;;;5.70;78.70;;;;;;5031061;28;19934;-74
2021/12/24 14:43:21;;;;;;;;;;;5.70;78.30;;;;;;5030901;28;19978;-74
2021/12/24 14:45:48;;;;;;;;;;;5.70;78.80;;;;;;5049242;22;19958;-74
2021/12/24 14:48:17;;;;;;;;;;;5.60;78.90;;;;;;5050055;28;21657;-74
2021/12/24 14:50:47;;;;;;;;;;;5.60;79.50;;;;;;5049318;28;19943;-74
2021/12/24 14:53:18;;;;;;;;;;;5.50;80.40;;;;;;5050783;28;19942;-74
2021/12/24 14:55:48;;;;;;;;;;;5.40;81.30;;;;;;5049140;28;19969;-74
2021/12/24 14:58:25;;;;;;;;;;;5.40;82.20;;;;;;5050269;28;20064;-74
2021/12/24 15:00:51;;;;;;;;;;;5.30;82.90;;;;;;5049642;28;20345;-74
2021/12/24 15:03:17;;;;;;;;;;;5.20;83.60;;;;;;5051459;28;19927;-74
2021/12/24 15:05:44;;;;;;;;;;;5.20;84.10;;;;;;5050474;28;19935;-74
2021/12/24 15:08:14;;;;;;;;;;;5.10;85.00;;;;;;5044079;28;19945;-74
2021/12/24 15:10:40;;;;;;;;;;;5.00;85.60;;;;;;5049153;28;19937;-74
2021/12/24 15:13:14;;;;;;;;;;;5.00;86.10;;;;;;5050287;28;19928;-74
2021/12/24 15:15:47;;;;;;;;;;;4.90;86.30;;;;;;5050615;28;19933;-74
2021/12/24 15:18:12;;;;;;;;;;;4.90;86.60;;;;;;5050056;28;19942;-74
2021/12/24 15:20:38;;;;;;;;;;;4.80;86.90;;;;;;5050344;28;19935;-74
2021/12/24 15:23:04;;;;;;;;;;;4.80;87.20;;;;;;5050246;28;20342;-74
2021/12/24 15:25:29;;;;;;;;;;;4.80;87.50;;;;;;5050164;28;19942;-74
2021/12/24 15:27:56;;;;;;;;;;;4.70;87.70;;;;;;5050162;28;20018;-74
2021/12/24 15:30:21;;;;;;;;;;;4.70;88.00;;;;;;5048931;28;20440;-74
2021/12/24 15:32:47;;;;;;;;;;;4.70;88.20;;;;;;5050045;28;19933;-74
2021/12/24 15:35:13;;;;;;;;;;;4.60;88.40;;;;;;5050229;28;19932;-74
2021/12/24 15:37:39;;;;;;;;;;;4.60;88.40;;;;;;5050165;28;19928;-74
2021/12/24 15:40:05;;;;;;;;;;;4.60;88.60;;;;;;5050044;28;19950;-74
2021/12/24 15:42:30;;;;;;;;;;;4.60;88.60;;;;;;5050173;28;20018;-74
2021/12/24 15:44:56;;;;;;;;;;;4.60;88.80;;;;;;5049329;28;20358;-74
2021/12/24 15:47:22;;;;;;;;;;;4.50;89.10;;;;;;5048989;28;19945;-74
2021/12/24 15:49:47;;;;;;;;;;;4.60;89.10;;;;;;5050407;28;20423;-74
2021/12/24 15:52:13;;;;;;;;;;;4.60;89.20;;;;;;5052602;28;19936;-74
2021/12/24 15:54:38;;;;;;;;;;;4.50;89.40;;;;;;5052164;28;19939;-75
2021/12/24 15:57:04;;;;;;;;;;;4.50;89.60;;;;;;5051897;28;20158;-74
2021/12/24 15:59:31;;;;;;;;;;;4.50;89.90;;;;;;5053698;28;20311;-74
2021/12/24 16:01:58;;;;;;;;;;;4.50;90.10;;;;;;5053736;28;20283;-74
2021/12/24 16:04:24;;;;;;;;;;;4.50;90.40;;;;;;5052185;28;20063;-74
2021/12/24 16:06:49;;;;;;;;;;;4.50;90.60;;;;;;5050335;28;20033;-74
2021/12/24 16:09:18;;;;;;;;;;;4.50;90.70;;;;;;5049898;28;19938;-74
2021/12/24 16:11:43;;;;;;;;;;;4.50;90.80;;;;;;5052172;28;20312;-74
2021/12/24 16:14:09;;;;;;;;;;;4.50;91.00;;;;;;5053532;28;20186;-74
2021/12/24 16:16:37;;;;;;;;;;;4.50;91.20;;;;;;5053230;28;19945;-74
2021/12/24 16:19:02;;;;;;;;;;;4.50;91.20;;;;;;5053324;28;19929;-74
2021/12/24 16:21:28;;;;;;;;;;;4.50;91.20;;;;;;5052674;28;20049;-74
2021/12/24 16:23:53;;;;;;;;;;;4.50;91.20;;;;;;5051641;28;19937;-74